N793ER KGUP-KABQ
Flight info
| Callsign | N793ER |
|---|---|
| Flight time | N/A |
| Altitude | 11500 |
| Route | DCT |
| Aircraft | DA42/L-V/N |
Departure
| Time | 2026-04-22 04:37 |
|---|---|
| Airport | Gallup Municipal Airport (KGUP) |
Arrival
| Time | N/A |
|---|---|
| Airport | Albuquerque International Sunport (KABQ) |
| Time | Latitude | Longitude | Altitude | Speed | Heading |
|---|---|---|---|---|---|
| 2026-04-22 04:36 | 35.51103 | -108.65256 | 11211 ft | 155 kts | 111° |
| 2026-04-22 04:37 | 35.50823 | -108.63983 | 11212 ft | 157 kts | 111° |
| 2026-04-22 04:37 | 35.50535 | -108.62677 | 11212 ft | 159 kts | 111° |
| 2026-04-22 04:37 | 35.50241 | -108.61350 | 11224 ft | 166 kts | 111° |
| 2026-04-22 04:37 | 35.49918 | -108.59913 | 11216 ft | 181 kts | 110° |
| 2026-04-22 04:38 | 35.49578 | -108.58378 | 11213 ft | 190 kts | 110° |
| 2026-04-22 04:38 | 35.49232 | -108.56807 | 11223 ft | 195 kts | 110° |
| 2026-04-22 04:38 | 35.48873 | -108.55184 | 11222 ft | 198 kts | 110° |
| 2026-04-22 04:38 | 35.48652 | -108.53500 | 11224 ft | 202 kts | 98° |
| 2026-04-22 04:39 | 35.48320 | -108.51840 | 11224 ft | 199 kts | 112° |
| 2026-04-22 04:39 | 35.47857 | -108.50230 | 11223 ft | 200 kts | 114° |
| 2026-04-22 04:39 | 35.47417 | -108.48605 | 11223 ft | 201 kts | 111° |
| 2026-04-22 04:39 | 35.47041 | -108.46961 | 11225 ft | 203 kts | 109° |
| 2026-04-22 04:40 | 35.46675 | -108.45280 | 11226 ft | 204 kts | 109° |
| 2026-04-22 04:40 | 35.46304 | -108.43599 | 11225 ft | 204 kts | 109° |
| 2026-04-22 04:40 | 35.45930 | -108.41920 | 11233 ft | 203 kts | 109° |
| 2026-04-22 04:40 | 35.45560 | -108.40272 | 11232 ft | 202 kts | 109° |
| 2026-04-22 04:41 | 35.45185 | -108.38603 | 11234 ft | 203 kts | 109° |
| 2026-04-22 04:41 | 35.44811 | -108.36930 | 11233 ft | 203 kts | 109° |
| 2026-04-22 04:41 | 35.44436 | -108.35256 | 11234 ft | 203 kts | 109° |
| 2026-04-22 04:41 | 35.44060 | -108.33578 | 11234 ft | 204 kts | 109° |
| 2026-04-22 04:42 | 35.43689 | -108.31925 | 11231 ft | 203 kts | 109° |
| 2026-04-22 04:42 | 35.43314 | -108.30252 | 11232 ft | 203 kts | 109° |
| 2026-04-22 04:42 | 35.42938 | -108.28580 | 11234 ft | 202 kts | 109° |
| 2026-04-22 04:42 | 35.42563 | -108.26913 | 11235 ft | 202 kts | 109° |
| 2026-04-22 04:43 | 35.42193 | -108.25267 | 11237 ft | 203 kts | 109° |
| 2026-04-22 04:43 | 35.41815 | -108.23589 | 11237 ft | 204 kts | 109° |
| 2026-04-22 04:43 | 35.41437 | -108.21909 | 11238 ft | 204 kts | 109° |
| 2026-04-22 04:43 | 35.41057 | -108.20225 | 11252 ft | 204 kts | 109° |
| 2026-04-22 04:44 | 35.40684 | -108.18570 | 11262 ft | 204 kts | 108° |
| 2026-04-22 04:44 | 35.40305 | -108.16894 | 11276 ft | 203 kts | 108° |
| 2026-04-22 04:44 | 35.39927 | -108.15221 | 11292 ft | 203 kts | 108° |
| 2026-04-22 04:44 | 35.39548 | -108.13546 | 11305 ft | 204 kts | 108° |
| 2026-04-22 04:45 | 35.39169 | -108.11871 | 11318 ft | 203 kts | 109° |
| 2026-04-22 04:45 | 35.38796 | -108.10220 | 11332 ft | 204 kts | 109° |
| 2026-04-22 04:45 | 35.38416 | -108.08544 | 11344 ft | 204 kts | 109° |
| 2026-04-22 04:45 | 35.38036 | -108.06869 | 11354 ft | 204 kts | 109° |
| 2026-04-22 04:46 | 35.37656 | -108.05193 | 11365 ft | 204 kts | 109° |
| 2026-04-22 04:46 | 35.37275 | -108.03516 | 11373 ft | 204 kts | 109° |
| 2026-04-22 04:46 | 35.36891 | -108.01829 | 11385 ft | 206 kts | 109° |
| 2026-04-22 04:46 | 35.36505 | -108.00132 | 11395 ft | 207 kts | 109° |
| 2026-04-22 04:47 | 35.36122 | -107.98446 | 11400 ft | 208 kts | 109° |
| 2026-04-22 04:47 | 35.35732 | -107.96734 | 11411 ft | 209 kts | 109° |
| 2026-04-22 04:47 | 35.35339 | -107.95014 | 11423 ft | 210 kts | 108° |
| 2026-04-22 04:47 | 35.34945 | -107.93285 | 11422 ft | 210 kts | 109° |
| 2026-04-22 04:48 | 35.34556 | -107.91570 | 11430 ft | 208 kts | 109° |
| 2026-04-22 04:48 | 35.34171 | -107.89885 | 11437 ft | 208 kts | 110° |
| 2026-04-22 04:48 | 35.33779 | -107.88173 | 11441 ft | 208 kts | 109° |
| 2026-04-22 04:48 | 35.33387 | -107.86455 | 11444 ft | 209 kts | 110° |
| 2026-04-22 04:49 | 35.32993 | -107.84735 | 11440 ft | 209 kts | 110° |
| 2026-04-22 04:49 | 35.32600 | -107.83022 | 11441 ft | 208 kts | 110° |
| 2026-04-22 04:49 | 35.32213 | -107.81334 | 11439 ft | 208 kts | 109° |
| 2026-04-22 04:49 | 35.31840 | -107.79706 | 11240 ft | 206 kts | 109° |
| 2026-04-22 04:50 | 35.31451 | -107.78007 | 11247 ft | 207 kts | 109° |
| 2026-04-22 04:50 | 35.31058 | -107.76302 | 11240 ft | 207 kts | 110° |
| 2026-04-22 04:50 | 35.30673 | -107.74626 | 11243 ft | 207 kts | 109° |
| 2026-04-22 04:50 | 35.30281 | -107.72919 | 11234 ft | 208 kts | 108° |
| 2026-04-22 04:51 | 35.29890 | -107.71217 | 11238 ft | 206 kts | 108° |
| 2026-04-22 04:51 | 35.29501 | -107.69524 | 11239 ft | 206 kts | 107° |
| 2026-04-22 04:51 | 35.29115 | -107.67856 | 11238 ft | 206 kts | 108° |
| 2026-04-22 04:51 | 35.28728 | -107.66171 | 11237 ft | 204 kts | 108° |
| 2026-04-22 04:52 | 35.28340 | -107.64497 | 11243 ft | 205 kts | 108° |
| 2026-04-22 04:52 | 35.27950 | -107.62805 | 11242 ft | 207 kts | 108° |
| 2026-04-22 04:52 | 35.27555 | -107.61102 | 11240 ft | 208 kts | 108° |
| 2026-04-22 04:52 | 35.27161 | -107.59395 | 11234 ft | 208 kts | 108° |
| 2026-04-22 04:53 | 35.26767 | -107.57706 | 11238 ft | 208 kts | 108° |
| 2026-04-22 04:53 | 35.26379 | -107.56004 | 11239 ft | 206 kts | 108° |
| 2026-04-22 04:53 | 35.25988 | -107.54337 | 11249 ft | 199 kts | 108° |
| 2026-04-22 04:53 | 35.25610 | -107.52705 | 11236 ft | 198 kts | 108° |
| 2026-04-22 04:54 | 35.25237 | -107.51088 | 11246 ft | 198 kts | 108° |
| 2026-04-22 04:54 | 35.24858 | -107.49466 | 11247 ft | 199 kts | 108° |
| 2026-04-22 04:54 | 35.24482 | -107.47848 | 11243 ft | 202 kts | 108° |
| 2026-04-22 04:54 | 35.24096 | -107.46177 | 11235 ft | 204 kts | 108° |
| 2026-04-22 04:55 | 35.23706 | -107.44507 | 11232 ft | 204 kts | 108° |
| 2026-04-22 04:55 | 35.23315 | -107.42829 | 11231 ft | 205 kts | 108° |
| 2026-04-22 04:55 | 35.22922 | -107.41146 | 11199 ft | 203 kts | 108° |
| 2026-04-22 04:55 | 35.22548 | -107.39533 | 11238 ft | 201 kts | 107° |
| 2026-04-22 04:56 | 35.22157 | -107.37873 | 11221 ft | 204 kts | 107° |
| 2026-04-22 04:56 | 35.21770 | -107.36199 | 11223 ft | 205 kts | 107° |
| 2026-04-22 04:56 | 35.21383 | -107.34530 | 11266 ft | 201 kts | 107° |
| 2026-04-22 04:56 | 35.21001 | -107.32916 | 11308 ft | 200 kts | 107° |
| 2026-04-22 04:57 | 35.20617 | -107.31270 | 11304 ft | 202 kts | 107° |
| 2026-04-22 04:57 | 35.20229 | -107.29608 | 11308 ft | 204 kts | 107° |
| 2026-04-22 04:57 | 35.19836 | -107.27932 | 11302 ft | 205 kts | 107° |
| 2026-04-22 04:57 | 35.19445 | -107.26262 | 11298 ft | 204 kts | 107° |
| 2026-04-22 04:58 | 35.19053 | -107.24593 | 11298 ft | 204 kts | 107° |
| 2026-04-22 04:58 | 35.18665 | -107.22945 | 11298 ft | 204 kts | 107° |
| 2026-04-22 04:58 | 35.18273 | -107.21272 | 11303 ft | 204 kts | 107° |
| 2026-04-22 04:58 | 35.17879 | -107.19593 | 11299 ft | 205 kts | 107° |
| 2026-04-22 04:59 | 35.17482 | -107.17913 | 11287 ft | 205 kts | 107° |
| 2026-04-22 04:59 | 35.17085 | -107.16229 | 11290 ft | 206 kts | 107° |
| 2026-04-22 04:59 | 35.16688 | -107.14541 | 11288 ft | 206 kts | 107° |
| 2026-04-22 04:59 | 35.16292 | -107.12858 | 11287 ft | 206 kts | 107° |
| 2026-04-22 05:00 | 35.15900 | -107.11197 | 11284 ft | 205 kts | 107° |
| 2026-04-22 05:00 | 35.15505 | -107.09524 | 11284 ft | 205 kts | 107° |
| 2026-04-22 05:00 | 35.15108 | -107.07842 | 11286 ft | 205 kts | 107° |
| 2026-04-22 05:00 | 35.14710 | -107.06162 | 11286 ft | 206 kts | 107° |
| 2026-04-22 05:01 | 35.14313 | -107.04481 | 11284 ft | 205 kts | 108° |
| 2026-04-22 05:01 | 35.13920 | -107.02816 | 11288 ft | 203 kts | 109° |
| 2026-04-22 05:01 | 35.13533 | -107.01190 | 11285 ft | 201 kts | 109° |
| 2026-04-22 05:01 | 35.13144 | -106.99550 | 11283 ft | 200 kts | 109° |
| 2026-04-22 05:02 | 35.12756 | -106.97914 | 11284 ft | 200 kts | 108° |
| 2026-04-22 05:02 | 35.12369 | -106.96282 | 11284 ft | 200 kts | 108° |
| 2026-04-22 05:02 | 35.11982 | -106.94649 | 11245 ft | 202 kts | 108° |
| 2026-04-22 05:02 | 35.11589 | -106.93006 | 11000 ft | 204 kts | 108° |
| 2026-04-22 05:03 | 35.11195 | -106.91349 | 10763 ft | 202 kts | 109° |
| 2026-04-22 05:03 | 35.10803 | -106.89696 | 10535 ft | 202 kts | 109° |
| 2026-04-22 05:03 | 35.10411 | -106.88047 | 10301 ft | 202 kts | 109° |
| 2026-04-22 05:03 | 35.10019 | -106.86403 | 10302 ft | 201 kts | 108° |
| 2026-04-22 05:04 | 35.09628 | -106.84762 | 10071 ft | 200 kts | 108° |
| 2026-04-22 05:04 | 35.09239 | -106.83150 | 9824 ft | 199 kts | 111° |
| 2026-04-22 05:04 | 35.08721 | -106.81588 | 9572 ft | 197 kts | 117° |
| 2026-04-22 05:04 | 35.08144 | -106.80075 | 9326 ft | 196 kts | 118° |
| 2026-04-22 05:05 | 35.07566 | -106.78574 | 9078 ft | 194 kts | 118° |
| 2026-04-22 05:05 | 35.06992 | -106.77085 | 8834 ft | 193 kts | 118° |
| 2026-04-22 05:05 | 35.06430 | -106.75605 | 8587 ft | 195 kts | 118° |
| 2026-04-22 05:05 | 35.05863 | -106.74088 | 8338 ft | 197 kts | 118° |
| 2026-04-22 05:06 | 35.05296 | -106.72551 | 8074 ft | 198 kts | 118° |
| 2026-04-22 05:06 | 35.04940 | -106.71517 | 7923 ft | 200 kts | 112° |
| 2026-04-22 05:07 | 35.04917 | -106.71431 | 7907 ft | 200 kts | 111° |
| 2026-04-22 05:07 | 35.04665 | -106.69819 | 7591 ft | 185 kts | 103° |
| 2026-04-22 05:07 | 35.04521 | -106.68338 | 7256 ft | 168 kts | 100° |
| 2026-04-22 05:07 | 35.04607 | -106.66436 | 6577 ft | 163 kts | 94° |
| 2026-04-22 05:08 | 35.04510 | -106.65214 | 6223 ft | 129 kts | 105° |
| 2026-04-22 05:08 | 35.04457 | -106.64565 | 6073 ft | 105 kts | 97° |
| 2026-04-22 05:08 | 35.04457 | -106.63735 | 5815 ft | 93 kts | 94° |
| 2026-04-22 05:08 | 35.04444 | -106.63218 | 5638 ft | 92 kts | 91° |